首页
METAR-TAF:

METAR-TAF

机场 :

潘普洛纳机场

潘普洛納, 西班牙

纬度: 42-46N, 经度: 001-38W, 海拔: 459米

当前天气观测

该预报发布于38分钟前的18:30 UTC
风速11节,风向北转西北
温度 7°C
湿度 66%
气压 1033 hPa
能见度10公里或以上
少量云层高于4000英尺

METAR: LEPP 181830Z 34011KT 9999 FEW040 07/01 Q1033

时间: 20:08 (19:08 UTC)

预报

该预报发布于5小时和8分钟前的14:00 UTC
预报有效从18日的 15点(UTC)到 19日的 15点(UTC)
风速5节,风向多变
能见度10公里或以上
少量云层高于3000英尺
短暂存在
从 18日的 15点(UTC)到 18日的 21点(UTC)
风速12节,风向北转西北
短暂存在
从 18日的 19点(UTC)到 19日的 09点(UTC)
能見度: 3000
轻雾
几率 40% :
短暂存在
从 18日的 23点(UTC)到 19日的 05点(UTC)
能見度: 1500
轻雾, 碎片雾

TAF: LEPP 181400Z 1815/1915 VRB05KT 9999 FEW030 TX13/1915Z TN00/1902Z TEMPO 1815/1821 34012KT TEMPO 1819/1909 3000 BR PROB40 TEMPO 1823/1905 1500 BR BCFG

超过4000个机场的气象观测和天气预报(METAR&TAF报告)。

可查询的气象台以黄色和红色小点在地图上表示。

将鼠标移到小点上方,可查看气象台名称。

然后点击查看天气观测和预报。

如需切换地图:点击带黑十字的绿色按钮放大地图;点击带横线的绿色按钮缩小地图;或者点击绿色箭头查看邻近地区的地图。


METAR-TAF: